Station History

Weather Underground - logo

Station Historical Data
Daily Summary for March 3, 2018 Units:  Both    English   Metric
« Previous Day
Next Day »
Daily Weekly Monthly Yearly Custom
  High: Low: Average:
Temperature: 57.6 °F /  14.2 °C 42.7 °F /  5.9 °C 48.4 °F /  9.1 °C
Dew Point: 47.5 °F /  8.6 °C 36.2 °F /  2.3 °C 43 °F /  6.1 °C
Humidity: 95 % 46 % 83 %
Wind Speed: 13.8 mph /  22.2 km/h - 1.5 mph /  2.4 km/h
Wind Gust: 13.8 mph /  22.2 km/h - -
Wind:- - SSW
Pressure: 30.17 in /  1021.6 hPa 29.98 in /  1015.1 hPa -
Precipitation: 0.24 in /  6.1 mm    
Historical Graphs
 
 
Tabular Data for March 3, 2018
Time Temperature Dew Point Pressure Wind Wind Speed Wind Gust Humidity Rainfall Rate (Hourly)
00:04 48.8 °F /  9.3 °C 46.9 °F /  8.3 °C 30.00 in /  1015.8 hPa Calm     93 % 0.01 in /  0.25 mm
00:09 48.8 °F /  9.3 °C 46.9 °F /  8.3 °C 30.00 in /  1015.8 hPa NNW 1.2 mph /  1.9 km/h   93 % 0.02 in /  0.51 mm
00:14 49.0 °F /  9.4 °C 47.1 °F /  8.4 °C 30.01 in /  1016.1 hPa WNW 1.2 mph /  1.9 km/h 1.2 mph /  1.9 km/h 93 % 0.03 in /  0.76 mm
00:19 49.1 °F /  9.5 °C 47.2 °F /  8.4 °C 30.00 in /  1015.8 hPa Calm     93 % 0.04 in /  1.02 mm
00:25 49.2 °F /  9.6 °C 47.3 °F /  8.5 °C 30.00 in /  1015.8 hPa Calm     93 % 0.04 in /  1.02 mm
00:30 49.2 °F /  9.6 °C 47.3 °F /  8.5 °C 30.00 in /  1015.8 hPa Calm     93 % 0.04 in /  1.02 mm
00:35 49.2 °F /  9.6 °C 47.3 °F /  8.5 °C 30.00 in /  1015.8 hPa Calm     93 % 0.04 in /  1.02 mm
00:40 49.3 °F /  9.6 °C 47.4 °F /  8.6 °C 30.00 in /  1015.8 hPa North 1.0 mph /  1.6 km/h   93 % 0.04 in /  1.02 mm
00:45 49.2 °F /  9.6 °C 47.3 °F /  8.5 °C 30.00 in /  1015.8 hPa NNE 1.2 mph /  1.9 km/h 1.2 mph /  1.9 km/h 93 % 0.04 in /  1.02 mm
00:50 49.1 °F /  9.5 °C 47.2 °F /  8.4 °C 30.00 in /  1015.8 hPa NNE 1.2 mph /  1.9 km/h   93 % 0.04 in /  1.02 mm
00:55 49.0 °F /  9.4 °C 47.1 °F /  8.4 °C 30.00 in /  1015.8 hPa Calm     93 % 0.03 in /  0.76 mm
01:00 48.9 °F /  9.4 °C 47.0 °F /  8.3 °C 30.00 in /  1015.8 hPa NNE 1.2 mph /  1.9 km/h 1.2 mph /  1.9 km/h 93 % 0.03 in /  0.76 mm
01:05 48.7 °F /  9.3 °C 46.8 °F /  8.2 °C 30.00 in /  1015.8 hPa Calm     93 % 0.03 in /  0.76 mm
01:10 48.6 °F /  9.2 °C 46.7 °F /  8.2 °C 30.00 in /  1015.8 hPa ENE 1.2 mph /  1.9 km/h   93 % 0.02 in /  0.51 mm
01:15 48.5 °F /  9.2 °C 46.6 °F /  8.1 °C 30.00 in /  1015.8 hPa ENE 1.2 mph /  1.9 km/h   93 % 0.01 in /  0.25 mm
01:20 48.2 °F /  9 °C 46.3 °F /  7.9 °C 30.00 in /  1015.8 hPa ENE 1.2 mph /  1.9 km/h 1.2 mph /  1.9 km/h 93 % 0.00 in /  0 mm
01:25 48.0 °F /  8.9 °C 45.8 °F /  7.7 °C 30.00 in /  1015.8 hPa ENE 1.2 mph /  1.9 km/h   92 % 0.00 in /  0 mm
01:30 47.8 °F /  8.8 °C 45.6 °F /  7.6 °C 30.00 in /  1015.8 hPa Calm     92 % 0.00 in /  0 mm
01:35 47.7 °F /  8.7 °C 45.5 °F /  7.5 °C 30.00 in /  1015.8 hPa Calm     92 % 0.00 in /  0 mm
01:40 47.7 °F /  8.7 °C 45.5 °F /  7.5 °C 29.99 in /  1015.5 hPa Calm     92 % 0.00 in /  0 mm
01:45 47.7 °F /  8.7 °C 45.5 °F /  7.5 °C 29.99 in /  1015.5 hPa ENE 1.2 mph /  1.9 km/h   92 % 0.00 in /  0 mm
01:50 47.7 °F /  8.7 °C 45.5 °F /  7.5 °C 29.99 in /  1015.5 hPa Calm     92 % 0.00 in /  0 mm
01:56 48.0 °F /  8.9 °C 45.8 °F /  7.7 °C 29.99 in /  1015.5 hPa Calm     92 % 0.00 in /  0 mm
02:01 48.1 °F /  8.9 °C 45.9 °F /  7.7 °C 29.99 in /  1015.5 hPa ENE 1.2 mph /  1.9 km/h   92 % 0.00 in /  0 mm
02:06 48.0 °F /  8.9 °C 45.8 °F /  7.7 °C 29.99 in /  1015.5 hPa Calm   0.8 mph /  1.3 km/h 92 % 0.00 in /  0 mm
02:11 47.9 °F /  8.8 °C 45.7 °F /  7.6 °C 29.99 in /  1015.5 hPa Calm     92 % 0.00 in /  0 mm
02:16 47.8 °F /  8.8 °C 45.6 °F /  7.6 °C 29.99 in /  1015.5 hPa Calm     92 % 0.00 in /  0 mm
02:21 47.9 °F /  8.8 °C 45.7 °F /  7.6 °C 29.99 in /  1015.5 hPa Calm     92 % 0.00 in /  0 mm
02:26 47.9 °F /  8.8 °C 45.7 °F /  7.6 °C 29.99 in /  1015.5 hPa Calm     92 % 0.00 in /  0 mm
02:31 47.8 °F /  8.8 °C 45.9 °F /  7.7 °C 29.99 in /  1015.5 hPa Calm     93 % 0.00 in /  0 mm
02:36 47.7 °F /  8.7 °C 45.8 °F /  7.7 °C 29.99 in /  1015.5 hPa Calm     93 % 0.00 in /  0 mm
02:41 47.8 °F /  8.8 °C 45.9 °F /  7.7 °C 29.98 in /  1015.1 hPa Calm     93 % 0.00 in /  0 mm
02:46 47.9 °F /  8.8 °C 46.3 °F /  7.9 °C 29.98 in /  1015.1 hPa Calm     94 % 0.00 in /  0 mm
02:51 47.9 °F /  8.8 °C 46.3 °F /  7.9 °C 29.98 in /  1015.1 hPa Calm     94 % 0.00 in /  0 mm
02:56 48.0 °F /  8.9 °C 46.4 °F /  8 °C 29.98 in /  1015.1 hPa Calm     94 % 0.00 in /  0 mm
03:01 48.0 °F /  8.9 °C 46.1 °F /  7.8 °C 29.98 in /  1015.1 hPa Calm     93 % 0.00 in /  0 mm
03:06 47.9 °F /  8.8 °C 46.0 °F /  7.8 °C 29.98 in /  1015.1 hPa Calm     93 % 0.00 in /  0 mm
03:11 47.9 °F /  8.8 °C 46.0 °F /  7.8 °C 29.98 in /  1015.1 hPa Calm     93 % 0.00 in /  0 mm
03:16 48.0 °F /  8.9 °C 46.4 °F /  8 °C 29.98 in /  1015.1 hPa Calm     94 % 0.00 in /  0 mm
03:21 48.0 °F /  8.9 °C 46.4 °F /  8 °C 29.99 in /  1015.5 hPa ENE 1.2 mph /  1.9 km/h 1.2 mph /  1.9 km/h 94 % 0.01 in /  0.25 mm
03:26 47.9 °F /  8.8 °C 46.3 °F /  7.9 °C 29.98 in /  1015.1 hPa ENE 1.2 mph /  1.9 km/h 1.2 mph /  1.9 km/h 94 % 0.02 in /  0.51 mm
03:31 47.8 °F /  8.8 °C 46.2 °F /  7.9 °C 29.98 in /  1015.1 hPa Calm     94 % 0.02 in /  0.51 mm
03:36 47.8 °F /  8.8 °C 46.2 °F /  7.9 °C 29.99 in /  1015.5 hPa Calm     94 % 0.02 in /  0.51 mm
03:41 47.8 °F /  8.8 °C 46.2 °F /  7.9 °C 29.99 in /  1015.5 hPa Calm     94 % 0.02 in /  0.51 mm
03:46 47.9 °F /  8.8 °C 46.3 °F /  7.9 °C 29.99 in /  1015.5 hPa Calm     94 % 0.02 in /  0.51 mm
03:51 47.9 °F /  8.8 °C 46.3 °F /  7.9 °C 29.99 in /  1015.5 hPa Calm     94 % 0.02 in /  0.51 mm
03:56 47.8 °F /  8.8 °C 46.2 °F /  7.9 °C 29.99 in /  1015.5 hPa Calm   0.1 mph /  0.2 km/h 94 % 0.02 in /  0.51 mm
04:01 47.8 °F /  8.8 °C 46.2 °F /  7.9 °C 30.00 in /  1015.8 hPa Calm     94 % 0.02 in /  0.51 mm
04:06 47.8 °F /  8.8 °C 46.2 °F /  7.9 °C 29.99 in /  1015.5 hPa ENE 1.2 mph /  1.9 km/h 1.2 mph /  1.9 km/h 94 % 0.02 in /  0.51 mm
04:11 47.8 °F /  8.8 °C 46.2 °F /  7.9 °C 29.99 in /  1015.5 hPa ENE 1.2 mph /  1.9 km/h 1.2 mph /  1.9 km/h 94 % 0.03 in /  0.76 mm
04:16 47.8 °F /  8.8 °C 46.2 °F /  7.9 °C 30.00 in /  1015.8 hPa ENE 1.2 mph /  1.9 km/h   94 % 0.03 in /  0.76 mm
04:21 47.8 °F /  8.8 °C 46.2 °F /  7.9 °C 30.00 in /  1015.8 hPa ENE 1.2 mph /  1.9 km/h 1.2 mph /  1.9 km/h 94 % 0.02 in /  0.51 mm
04:26 47.8 °F /  8.8 °C 46.2 °F /  7.9 °C 30.00 in /  1015.8 hPa ENE 1.2 mph /  1.9 km/h   94 % 0.01 in /  0.25 mm
04:31 47.8 °F /  8.8 °C 46.2 °F /  7.9 °C 30.00 in /  1015.8 hPa ENE 2.0 mph /  3.2 km/h 2.0 mph /  3.2 km/h 94 % 0.01 in /  0.25 mm
04:36 47.9 °F /  8.8 °C 46.5 °F /  8.1 °C 30.00 in /  1015.8 hPa Calm     95 % 0.01 in /  0.25 mm
04:41 47.9 °F /  8.8 °C 46.5 °F /  8.1 °C 30.00 in /  1015.8 hPa ENE 1.2 mph /  1.9 km/h   95 % 0.01 in /  0.25 mm
04:46 47.9 °F /  8.8 °C 46.3 °F /  7.9 °C 30.00 in /  1015.8 hPa ENE 1.2 mph /  1.9 km/h   94 % 0.01 in /  0.25 mm
04:51 47.9 °F /  8.8 °C 46.5 °F /  8.1 °C 30.00 in /  1015.8 hPa ENE 1.2 mph /  1.9 km/h 1.2 mph /  1.9 km/h 95 % 0.01 in /  0.25 mm
04:56 47.9 °F /  8.8 °C 46.3 °F /  7.9 °C 30.00 in /  1015.8 hPa ENE 1.2 mph /  1.9 km/h 1.2 mph /  1.9 km/h 94 % 0.02 in /  0.51 mm
05:01 47.9 °F /  8.8 °C 46.3 °F /  7.9 °C 30.00 in /  1015.8 hPa ENE 1.2 mph /  1.9 km/h   94 % 0.02 in /  0.51 mm
05:06 47.8 °F /  8.8 °C 46.2 °F /  7.9 °C 30.00 in /  1015.8 hPa Calm     94 % 0.02 in /  0.51 mm
05:11 47.8 °F /  8.8 °C 46.2 °F /  7.9 °C 30.00 in /  1015.8 hPa Calm     94 % 0.01 in /  0.25 mm
05:16 47.7 °F /  8.7 °C 46.1 °F /  7.8 °C 30.00 in /  1015.8 hPa Calm     94 % 0.01 in /  0.25 mm
05:21 47.7 °F /  8.7 °C 46.1 °F /  7.8 °C 30.01 in /  1016.1 hPa Calm     94 % 0.01 in /  0.25 mm
05:26 47.7 °F /  8.7 °C 46.1 °F /  7.8 °C 30.00 in /  1015.8 hPa Calm     94 % 0.01 in /  0.25 mm
05:31 47.6 °F /  8.7 °C 46.0 °F /  7.8 °C 30.01 in /  1016.1 hPa Calm     94 % 0.01 in /  0.25 mm
05:36 47.5 °F /  8.6 °C 45.9 °F /  7.7 °C 30.01 in /  1016.1 hPa ENE 1.2 mph /  1.9 km/h 1.2 mph /  1.9 km/h 94 % 0.01 in /  0.25 mm
05:41 47.5 °F /  8.6 °C 45.9 °F /  7.7 °C 30.01 in /  1016.1 hPa ENE 1.2 mph /  1.9 km/h   94 % 0.01 in /  0.25 mm
05:47 47.5 °F /  8.6 °C 45.9 °F /  7.7 °C 30.01 in /  1016.1 hPa Calm     94 % 0.01 in /  0.25 mm
05:52 47.5 °F /  8.6 °C 46.1 °F /  7.8 °C 30.01 in /  1016.1 hPa Calm     95 % 0.01 in /  0.25 mm
05:57 47.6 °F /  8.7 °C 46.2 °F /  7.9 °C 30.01 in /  1016.1 hPa Calm     95 % 0.00 in /  0 mm
06:02 47.6 °F /  8.7 °C 46.2 °F /  7.9 °C 30.01 in /  1016.1 hPa Calm     95 % 0.01 in /  0.25 mm
06:07 47.6 °F /  8.7 °C 46.2 °F /  7.9 °C 30.01 in /  1016.1 hPa Calm     95 % 0.01 in /  0.25 mm
06:12 47.6 °F /  8.7 °C 46.2 °F /  7.9 °C 30.02 in /  1016.5 hPa Calm     95 % 0.01 in /  0.25 mm
06:17 47.7 °F /  8.7 °C 46.3 °F /  7.9 °C 30.02 in /  1016.5 hPa ENE 1.0 mph /  1.6 km/h 1.0 mph /  1.6 km/h 95 % 0.02 in /  0.51 mm
06:22 47.7 °F /  8.7 °C 46.3 °F /  7.9 °C 30.02 in /  1016.5 hPa ENE 3.5 mph /  5.6 km/h 3.5 mph /  5.6 km/h 95 % 0.02 in /  0.51 mm
06:27 47.8 °F /  8.8 °C 46.4 °F /  8 °C 30.02 in /  1016.5 hPa ENE 2.3 mph /  3.7 km/h 2.3 mph /  3.7 km/h 95 % 0.03 in /  0.76 mm
06:32 47.8 °F /  8.8 °C 46.4 °F /  8 °C 30.02 in /  1016.5 hPa SSE 3.5 mph /  5.6 km/h 3.5 mph /  5.6 km/h 95 % 0.03 in /  0.76 mm
06:37 47.8 °F /  8.8 °C 46.4 °F /  8 °C 30.02 in /  1016.5 hPa ESE 2.0 mph /  3.2 km/h 2.0 mph /  3.2 km/h 95 % 0.03 in /  0.76 mm
06:42 47.8 °F /  8.8 °C 46.4 °F /  8 °C 30.02 in /  1016.5 hPa SE 2.3 mph /  3.7 km/h 2.3 mph /  3.7 km/h 95 % 0.03 in /  0.76 mm
06:47 47.8 °F /  8.8 °C 46.4 °F /  8 °C 30.02 in /  1016.5 hPa SSE 3.5 mph /  5.6 km/h 3.5 mph /  5.6 km/h 95 % 0.03 in /  0.76 mm
06:52 47.8 °F /  8.8 °C 46.4 °F /  8 °C 30.03 in /  1016.8 hPa ESE 2.3 mph /  3.7 km/h 2.3 mph /  3.7 km/h 95 % 0.03 in /  0.76 mm
06:57 47.9 °F /  8.8 °C 46.5 °F /  8.1 °C 30.03 in /  1016.8 hPa ESE 2.3 mph /  3.7 km/h 2.3 mph /  3.7 km/h 95 % 0.04 in /  1.02 mm
07:02 47.9 °F /  8.8 °C 46.5 °F /  8.1 °C 30.03 in /  1016.8 hPa ESE 1.2 mph /  1.9 km/h 1.2 mph /  1.9 km/h 95 % 0.03 in /  0.76 mm
07:07 47.9 °F /  8.8 °C 46.5 °F /  8.1 °C 30.04 in /  1017.2 hPa ESE 1.2 mph /  1.9 km/h 1.2 mph /  1.9 km/h 95 % 0.03 in /  0.76 mm
07:12 47.9 °F /  8.8 °C 46.5 °F /  8.1 °C 30.04 in /  1017.2 hPa ESE 2.3 mph /  3.7 km/h 2.3 mph /  3.7 km/h 95 % 0.03 in /  0.76 mm
07:17 48.0 °F /  8.9 °C 46.6 °F /  8.1 °C 30.04 in /  1017.2 hPa ESE 1.0 mph /  1.6 km/h   95 % 0.03 in /  0.76 mm
07:22 48.0 °F /  8.9 °C 46.6 °F /  8.1 °C 30.04 in /  1017.2 hPa Calm     95 % 0.04 in /  1.02 mm
07:27 48.1 °F /  8.9 °C 46.7 °F /  8.2 °C 30.04 in /  1017.2 hPa Calm     95 % 0.03 in /  0.76 mm
07:32 48.1 °F /  8.9 °C 46.7 °F /  8.2 °C 30.05 in /  1017.5 hPa North 1.2 mph /  1.9 km/h   95 % 0.03 in /  0.76 mm
07:37 47.8 °F /  8.8 °C 46.4 °F /  8 °C 30.05 in /  1017.5 hPa NW 6.9 mph /  11.1 km/h 6.9 mph /  11.1 km/h 95 % 0.03 in /  0.76 mm
07:42 46.2 °F /  7.9 °C 44.0 °F /  6.7 °C 30.06 in /  1017.8 hPa NW 3.5 mph /  5.6 km/h 3.5 mph /  5.6 km/h 92 % 0.03 in /  0.76 mm
07:47 45.5 °F /  7.5 °C 43.3 °F /  6.3 °C 30.06 in /  1017.8 hPa NW 8.1 mph /  13 km/h 8.1 mph /  13 km/h 92 % 0.04 in /  1.02 mm
07:52 45.0 °F /  7.2 °C 42.8 °F /  6 °C 30.06 in /  1017.8 hPa NNW 3.5 mph /  5.6 km/h 3.5 mph /  5.6 km/h 92 % 0.04 in /  1.02 mm
07:57 44.8 °F /  7.1 °C 42.6 °F /  5.9 °C 30.06 in /  1017.8 hPa NW 3.5 mph /  5.6 km/h 3.5 mph /  5.6 km/h 92 % 0.03 in /  0.76 mm
08:02 44.8 °F /  7.1 °C 42.9 °F /  6.1 °C 30.06 in /  1017.8 hPa NW 2.3 mph /  3.7 km/h 2.3 mph /  3.7 km/h 93 % 0.03 in /  0.76 mm
08:07 44.7 °F /  7.1 °C 42.8 °F /  6 °C 30.06 in /  1017.8 hPa NW 2.3 mph /  3.7 km/h 2.3 mph /  3.7 km/h 93 % 0.04 in /  1.02 mm
08:12 44.7 °F /  7.1 °C 42.8 °F /  6 °C 30.06 in /  1017.8 hPa NW 2.3 mph /  3.7 km/h 2.3 mph /  3.7 km/h 93 % 0.04 in /  1.02 mm
08:17 44.7 °F /  7.1 °C 42.8 °F /  6 °C 30.06 in /  1017.8 hPa NNW 3.5 mph /  5.6 km/h 3.5 mph /  5.6 km/h 93 % 0.03 in /  0.76 mm
08:22 44.7 °F /  7.1 °C 42.8 °F /  6 °C 30.07 in /  1018.2 hPa NW 1.2 mph /  1.9 km/h 1.2 mph /  1.9 km/h 93 % 0.03 in /  0.76 mm
08:27 44.8 °F /  7.1 °C 42.9 °F /  6.1 °C 30.07 in /  1018.2 hPa NW 2.3 mph /  3.7 km/h   93 % 0.03 in /  0.76 mm
08:32 45.0 °F /  7.2 °C 43.1 °F /  6.2 °C 30.07 in /  1018.2 hPa Calm   0.1 mph /  0.2 km/h 93 % 0.03 in /  0.76 mm
08:37 45.2 °F /  7.3 °C 43.3 °F /  6.3 °C 30.07 in /  1018.2 hPa Calm     93 % 0.03 in /  0.76 mm
08:42 45.5 °F /  7.5 °C 43.6 °F /  6.4 °C 30.07 in /  1018.2 hPa Calm     93 % 0.03 in /  0.76 mm
08:47 45.6 °F /  7.6 °C 43.7 °F /  6.5 °C 30.07 in /  1018.2 hPa NW 1.2 mph /  1.9 km/h   93 % 0.02 in /  0.51 mm
08:52 45.9 °F /  7.7 °C 44.0 °F /  6.7 °C 30.07 in /  1018.2 hPa NW 2.3 mph /  3.7 km/h 2.3 mph /  3.7 km/h 93 % 0.02 in /  0.51 mm
08:57 46.1 °F /  7.8 °C 44.2 °F /  6.8 °C 30.07 in /  1018.2 hPa Calm     93 % 0.02 in /  0.51 mm
09:02 46.2 °F /  7.9 °C 44.3 °F /  6.8 °C 30.08 in /  1018.5 hPa Calm     93 % 0.02 in /  0.51 mm
09:07 46.4 °F /  8 °C 44.5 °F /  6.9 °C 30.08 in /  1018.5 hPa Calm     93 % 0.02 in /  0.51 mm
09:12 46.7 °F /  8.2 °C 44.8 °F /  7.1 °C 30.08 in /  1018.5 hPa Calm   0.1 mph /  0.2 km/h 93 % 0.02 in /  0.51 mm
09:17 46.9 °F /  8.3 °C 45.0 °F /  7.2 °C 30.07 in /  1018.2 hPa East 1.2 mph /  1.9 km/h 1.2 mph /  1.9 km/h 93 % 0.02 in /  0.51 mm
09:22 47.0 °F /  8.3 °C 45.1 °F /  7.3 °C 30.08 in /  1018.5 hPa East 1.2 mph /  1.9 km/h   93 % 0.01 in /  0.25 mm
09:27 47.2 °F /  8.4 °C 45.3 °F /  7.4 °C 30.08 in /  1018.5 hPa East 1.2 mph /  1.9 km/h 1.2 mph /  1.9 km/h 93 % 0.01 in /  0.25 mm
09:32 47.4 °F /  8.6 °C 45.2 °F /  7.3 °C 30.07 in /  1018.2 hPa WNW 1.2 mph /  1.9 km/h 1.2 mph /  1.9 km/h 92 % 0.01 in /  0.25 mm
09:37 48.1 °F /  8.9 °C 46.2 °F /  7.9 °C 30.07 in /  1018.2 hPa NW 3.0 mph /  4.8 km/h 3.0 mph /  4.8 km/h 93 % 0.01 in /  0.25 mm
09:42 48.6 °F /  9.2 °C 46.4 °F /  8 °C 30.07 in /  1018.2 hPa SE 2.3 mph /  3.7 km/h 2.3 mph /  3.7 km/h 92 % 0.01 in /  0.25 mm
09:47 49.5 °F /  9.7 °C 47.3 °F /  8.5 °C 30.08 in /  1018.5 hPa SE 1.2 mph /  1.9 km/h 1.2 mph /  1.9 km/h 92 % 0.01 in /  0.25 mm
09:52 50.0 °F /  10 °C 46.9 °F /  8.3 °C 30.08 in /  1018.5 hPa NW 3.5 mph /  5.6 km/h 3.5 mph /  5.6 km/h 89 % 0.01 in /  0.25 mm
09:57 50.6 °F /  10.3 °C 47.5 °F /  8.6 °C 30.08 in /  1018.5 hPa NE 1.2 mph /  1.9 km/h 1.2 mph /  1.9 km/h 89 % 0.01 in /  0.25 mm
10:02 51.3 °F /  10.7 °C 47.3 °F /  8.5 °C 30.08 in /  1018.5 hPa NW 3.0 mph /  4.8 km/h 3.0 mph /  4.8 km/h 86 % 0.01 in /  0.25 mm
10:07 51.3 °F /  10.7 °C 46.3 °F /  7.9 °C 30.08 in /  1018.5 hPa SE 3.5 mph /  5.6 km/h 3.5 mph /  5.6 km/h 83 % 0.00 in /  0 mm
10:12 51.4 °F /  10.8 °C 44.8 °F /  7.1 °C 30.08 in /  1018.5 hPa NW 3.5 mph /  5.6 km/h 3.5 mph /  5.6 km/h 78 % 0.00 in /  0 mm
10:18 51.2 °F /  10.7 °C 45.2 °F /  7.3 °C 30.09 in /  1018.8 hPa NW 3.5 mph /  5.6 km/h 3.5 mph /  5.6 km/h 80 % 0.00 in /  0 mm
10:23 51.0 °F /  10.6 °C 44.4 °F /  6.9 °C 30.09 in /  1018.8 hPa WNW 4.6 mph /  7.4 km/h 4.6 mph /  7.4 km/h 78 % 0.00 in /  0 mm
10:28 50.9 °F /  10.5 °C 43.9 °F /  6.6 °C 30.09 in /  1018.8 hPa NW 1.2 mph /  1.9 km/h   77 % 0.00 in /  0 mm
10:33 50.9 °F /  10.5 °C 43.9 °F /  6.6 °C 30.09 in /  1018.8 hPa NW 3.5 mph /  5.6 km/h 3.5 mph /  5.6 km/h 77 % 0.00 in /  0 mm
10:38 50.8 °F /  10.4 °C 44.5 °F /  6.9 °C 30.09 in /  1018.8 hPa NW 2.3 mph /  3.7 km/h 2.3 mph /  3.7 km/h 79 % 0.00 in /  0 mm
10:43 50.8 °F /  10.4 °C 43.5 °F /  6.4 °C 30.09 in /  1018.8 hPa NNW 3.5 mph /  5.6 km/h 3.5 mph /  5.6 km/h 76 % 0.00 in /  0 mm
10:48 50.7 °F /  10.4 °C 43.4 °F /  6.3 °C 30.09 in /  1018.8 hPa NW 2.3 mph /  3.7 km/h 2.3 mph /  3.7 km/h 76 % 0.00 in /  0 mm
10:53 50.9 °F /  10.5 °C 43.3 °F /  6.3 °C 30.09 in /  1018.8 hPa NW 3.0 mph /  4.8 km/h 3.0 mph /  4.8 km/h 75 % 0.00 in /  0 mm
10:58 50.8 °F /  10.4 °C 42.8 °F /  6 °C 30.09 in /  1018.8 hPa WNW 3.5 mph /  5.6 km/h 3.5 mph /  5.6 km/h 74 % 0.00 in /  0 mm
11:03 50.8 °F /  10.4 °C 43.2 °F /  6.2 °C 30.09 in /  1018.8 hPa NW 4.0 mph /  6.4 km/h 4.0 mph /  6.4 km/h 75 % 0.00 in /  0 mm
11:08 51.0 °F /  10.6 °C 43.4 °F /  6.3 °C 30.09 in /  1018.8 hPa NW 2.3 mph /  3.7 km/h 2.3 mph /  3.7 km/h 75 % 0.00 in /  0 mm
11:13 50.9 °F /  10.5 °C 42.9 °F /  6.1 °C 30.09 in /  1018.8 hPa NW 3.5 mph /  5.6 km/h 3.5 mph /  5.6 km/h 74 % 0.00 in /  0 mm
11:18 50.9 °F /  10.5 °C 42.9 °F /  6.1 °C 30.09 in /  1018.8 hPa NW 2.3 mph /  3.7 km/h 2.3 mph /  3.7 km/h 74 % 0.00 in /  0 mm
11:23 51.0 °F /  10.6 °C 43.4 °F /  6.3 °C 30.09 in /  1018.8 hPa NW 1.2 mph /  1.9 km/h 1.2 mph /  1.9 km/h 75 % 0.00 in /  0 mm
11:28 51.2 °F /  10.7 °C 43.5 °F /  6.4 °C 30.09 in /  1018.8 hPa WNW 3.5 mph /  5.6 km/h 3.5 mph /  5.6 km/h 75 % 0.00 in /  0 mm
11:33 51.4 °F /  10.8 °C 44.1 °F /  6.7 °C 30.09 in /  1018.8 hPa NW 3.5 mph /  5.6 km/h 3.5 mph /  5.6 km/h 76 % 0.00 in /  0 mm
11:38 52.1 °F /  11.2 °C 44.1 °F /  6.7 °C 30.09 in /  1018.8 hPa WNW 3.5 mph /  5.6 km/h 3.5 mph /  5.6 km/h 74 % 0.00 in /  0 mm
11:43 52.2 °F /  11.2 °C 42.3 °F /  5.7 °C 30.09 in /  1018.8 hPa NW 4.6 mph /  7.4 km/h 4.6 mph /  7.4 km/h 69 % 0.00 in /  0 mm
11:48 52.6 °F /  11.4 °C 42.7 °F /  5.9 °C 30.08 in /  1018.5 hPa NNW 4.0 mph /  6.4 km/h 4.0 mph /  6.4 km/h 69 % 0.00 in /  0 mm
11:53 52.9 °F /  11.6 °C 43.0 °F /  6.1 °C 30.08 in /  1018.5 hPa NW 3.5 mph /  5.6 km/h 3.5 mph /  5.6 km/h 69 % 0.00 in /  0 mm
11:58 53.2 °F /  11.8 °C 42.9 °F /  6.1 °C 30.08 in /  1018.5 hPa NNW 2.3 mph /  3.7 km/h 2.3 mph /  3.7 km/h 68 % 0.00 in /  0 mm
12:03 53.2 °F /  11.8 °C 42.9 °F /  6.1 °C 30.08 in /  1018.5 hPa NW 3.5 mph /  5.6 km/h 3.5 mph /  5.6 km/h 68 % 0.00 in /  0 mm
12:08 53.0 °F /  11.7 °C 41.5 °F /  5.3 °C 30.08 in /  1018.5 hPa WNW 3.5 mph /  5.6 km/h 3.5 mph /  5.6 km/h 65 % 0.00 in /  0 mm
12:13 52.8 °F /  11.6 °C 42.5 °F /  5.8 °C 30.08 in /  1018.5 hPa NNW 3.5 mph /  5.6 km/h 3.5 mph /  5.6 km/h 68 % 0.00 in /  0 mm
12:18 53.0 °F /  11.7 °C 43.5 °F /  6.4 °C 30.07 in /  1018.2 hPa NW 1.2 mph /  1.9 km/h   70 % 0.00 in /  0 mm
12:23 53.2 °F /  11.8 °C 42.5 °F /  5.8 °C 30.07 in /  1018.2 hPa West 3.5 mph /  5.6 km/h 3.5 mph /  5.6 km/h 67 % 0.00 in /  0 mm
12:28 53.3 °F /  11.8 °C 43.0 °F /  6.1 °C 30.07 in /  1018.2 hPa WNW 1.2 mph /  1.9 km/h 1.2 mph /  1.9 km/h 68 % 0.00 in /  0 mm
12:33 53.6 °F /  12 °C 42.9 °F /  6.1 °C 30.07 in /  1018.2 hPa SE 1.2 mph /  1.9 km/h 1.2 mph /  1.9 km/h 67 % 0.00 in /  0 mm
12:38 53.6 °F /  12 °C 42.1 °F /  5.6 °C 30.07 in /  1018.2 hPa Calm     65 % 0.00 in /  0 mm
12:44 53.7 °F /  12.1 °C 42.2 °F /  5.7 °C 30.06 in /  1017.8 hPa Calm     65 % 0.00 in /  0 mm
12:49 53.7 °F /  12.1 °C 42.2 °F /  5.7 °C 30.06 in /  1017.8 hPa North 1.2 mph /  1.9 km/h 1.2 mph /  1.9 km/h 65 % 0.00 in /  0 mm
12:54 53.9 °F /  12.2 °C 42.4 °F /  5.8 °C 30.06 in /  1017.8 hPa North 1.2 mph /  1.9 km/h 1.2 mph /  1.9 km/h 65 % 0.00 in /  0 mm
12:59 53.9 °F /  12.2 °C 42.4 °F /  5.8 °C 30.05 in /  1017.5 hPa NW 2.3 mph /  3.7 km/h 2.3 mph /  3.7 km/h 65 % 0.00 in /  0 mm
13:04 53.5 °F /  11.9 °C 40.8 °F /  4.9 °C 30.05 in /  1017.5 hPa NW 2.3 mph /  3.7 km/h 2.3 mph /  3.7 km/h 62 % 0.00 in /  0 mm
13:09 53.3 °F /  11.8 °C 40.2 °F /  4.6 °C 30.05 in /  1017.5 hPa NW 3.5 mph /  5.6 km/h 3.5 mph /  5.6 km/h 61 % 0.00 in /  0 mm
13:14 53.3 °F /  11.8 °C 40.6 °F /  4.8 °C 30.05 in /  1017.5 hPa NE 2.3 mph /  3.7 km/h 2.3 mph /  3.7 km/h 62 % 0.00 in /  0 mm
13:19 53.7 °F /  12.1 °C 41.0 °F /  5 °C 30.04 in /  1017.2 hPa NW 3.5 mph /  5.6 km/h 3.5 mph /  5.6 km/h 62 % 0.00 in /  0 mm
13:24 53.8 °F /  12.1 °C 40.7 °F /  4.8 °C 30.04 in /  1017.2 hPa NW 3.5 mph /  5.6 km/h 3.5 mph /  5.6 km/h 61 % 0.00 in /  0 mm
13:29 54.0 °F /  12.2 °C 41.3 °F /  5.2 °C 30.04 in /  1017.2 hPa ESE 2.3 mph /  3.7 km/h 2.3 mph /  3.7 km/h 62 % 0.00 in /  0 mm
13:34 54.3 °F /  12.4 °C 40.7 °F /  4.8 °C 30.04 in /  1017.2 hPa NW 2.3 mph /  3.7 km/h 2.3 mph /  3.7 km/h 60 % 0.00 in /  0 mm
13:39 54.3 °F /  12.4 °C 40.7 °F /  4.8 °C 30.04 in /  1017.2 hPa Calm     60 % 0.00 in /  0 mm
13:44 55.3 °F /  12.9 °C 40.8 °F /  4.9 °C 30.04 in /  1017.2 hPa NW 2.3 mph /  3.7 km/h 2.3 mph /  3.7 km/h 58 % 0.00 in /  0 mm
13:49 55.9 °F /  13.3 °C 40.0 °F /  4.4 °C 30.04 in /  1017.2 hPa NW 3.5 mph /  5.6 km/h 3.5 mph /  5.6 km/h 55 % 0.00 in /  0 mm
13:54 55.5 °F /  13.1 °C 39.6 °F /  4.2 °C 30.04 in /  1017.2 hPa East 1.2 mph /  1.9 km/h 1.2 mph /  1.9 km/h 55 % 0.00 in /  0 mm
13:59 55.7 °F /  13.2 °C 39.8 °F /  4.3 °C 30.03 in /  1016.8 hPa SE 1.2 mph /  1.9 km/h   55 % 0.00 in /  0 mm
14:04 55.9 °F /  13.3 °C 39.0 °F /  3.9 °C 30.03 in /  1016.8 hPa ENE 1.2 mph /  1.9 km/h 1.2 mph /  1.9 km/h 53 % 0.00 in /  0 mm
14:09 55.9 °F /  13.3 °C 38.5 °F /  3.6 °C 30.03 in /  1016.8 hPa NW 2.3 mph /  3.7 km/h 2.3 mph /  3.7 km/h 52 % 0.00 in /  0 mm
14:14 56.3 °F /  13.5 °C 38.9 °F /  3.8 °C 30.03 in /  1016.8 hPa SE 2.3 mph /  3.7 km/h 2.3 mph /  3.7 km/h 52 % 0.00 in /  0 mm
14:19 56.7 °F /  13.7 °C 39.3 °F /  4.1 °C 30.03 in /  1016.8 hPa NE 3.5 mph /  5.6 km/h 3.5 mph /  5.6 km/h 52 % 0.00 in /  0 mm
14:24 56.5 °F /  13.6 °C 38.6 °F /  3.7 °C 30.03 in /  1016.8 hPa WSW 3.5 mph /  5.6 km/h   51 % 0.00 in /  0 mm
14:29 56.4 °F /  13.6 °C 37.5 °F /  3.1 °C 30.03 in /  1016.8 hPa WNW 2.3 mph /  3.7 km/h 2.3 mph /  3.7 km/h 49 % 0.00 in /  0 mm
14:34 56.3 °F /  13.5 °C 38.4 °F /  3.6 °C 30.03 in /  1016.8 hPa WNW 1.2 mph /  1.9 km/h 1.2 mph /  1.9 km/h 51 % 0.00 in /  0 mm
14:39 56.6 °F /  13.7 °C 39.2 °F /  4 °C 30.03 in /  1016.8 hPa East 1.2 mph /  1.9 km/h 1.2 mph /  1.9 km/h 52 % 0.00 in /  0 mm
14:45 57.4 °F /  14.1 °C 39.9 °F /  4.4 °C 30.02 in /  1016.5 hPa SE 2.3 mph /  3.7 km/h 2.3 mph /  3.7 km/h 52 % 0.00 in /  0 mm
14:50 57.4 °F /  14.1 °C 39.4 °F /  4.1 °C 30.02 in /  1016.5 hPa SSE 1.2 mph /  1.9 km/h 1.2 mph /  1.9 km/h 51 % 0.00 in /  0 mm
14:55 57.5 °F /  14.2 °C 39.5 °F /  4.2 °C 30.02 in /  1016.5 hPa SSE 3.5 mph /  5.6 km/h 3.5 mph /  5.6 km/h 51 % 0.00 in /  0 mm
15:00 57.3 °F /  14.1 °C 38.8 °F /  3.8 °C 30.02 in /  1016.5 hPa NW 1.2 mph /  1.9 km/h 1.2 mph /  1.9 km/h 50 % 0.00 in /  0 mm
15:05 57.4 °F /  14.1 °C 37.3 °F /  2.9 °C 30.02 in /  1016.5 hPa NNW 1.2 mph /  1.9 km/h   47 % 0.00 in /  0 mm
15:10 57.4 °F /  14.1 °C 37.3 °F /  2.9 °C 30.02 in /  1016.5 hPa NE 1.2 mph /  1.9 km/h 1.2 mph /  1.9 km/h 47 % 0.00 in /  0 mm
15:15 57.5 °F /  14.2 °C 37.9 °F /  3.3 °C 30.01 in /  1016.1 hPa SE 1.2 mph /  1.9 km/h 1.2 mph /  1.9 km/h 48 % 0.00 in /  0 mm
15:20 57.6 °F /  14.2 °C 37.5 °F /  3.1 °C 30.01 in /  1016.1 hPa SE 3.0 mph /  4.8 km/h 3.0 mph /  4.8 km/h 47 % 0.00 in /  0 mm
15:25 57.5 °F /  14.2 °C 37.4 °F /  3 °C 30.01 in /  1016.1 hPa SE 2.0 mph /  3.2 km/h 2.0 mph /  3.2 km/h 47 % 0.00 in /  0 mm
15:30 57.1 °F /  13.9 °C 37.0 °F /  2.8 °C 30.01 in /  1016.1 hPa SE 2.3 mph /  3.7 km/h   47 % 0.00 in /  0 mm
15:35 56.8 °F /  13.8 °C 36.2 °F /  2.3 °C 30.01 in /  1016.1 hPa NW 2.0 mph /  3.2 km/h 2.0 mph /  3.2 km/h 46 % 0.00 in /  0 mm
15:40 56.3 °F /  13.5 °C 36.3 °F /  2.4 °C 30.01 in /  1016.1 hPa Calm     47 % 0.00 in /  0 mm
15:45 56.0 °F /  13.3 °C 37.1 °F /  2.8 °C 30.01 in /  1016.1 hPa Calm     49 % 0.00 in /  0 mm
15:50 55.8 °F /  13.2 °C 36.9 °F /  2.7 °C 30.01 in /  1016.1 hPa Calm     49 % 0.00 in /  0 mm
15:55 55.8 °F /  13.2 °C 36.9 °F /  2.7 °C 30.00 in /  1015.8 hPa Calm     49 % 0.00 in /  0 mm
16:00 55.8 °F /  13.2 °C 37.4 °F /  3 °C 30.01 in /  1016.1 hPa Calm   0.2 mph /  0.3 km/h 50 % 0.00 in /  0 mm
16:05 55.7 °F /  13.2 °C 37.3 °F /  2.9 °C 30.00 in /  1015.8 hPa Calm     50 % 0.00 in /  0 mm
16:10 55.6 °F /  13.1 °C 37.7 °F /  3.2 °C 30.01 in /  1016.1 hPa SSE 1.2 mph /  1.9 km/h   51 % 0.00 in /  0 mm
16:15 55.5 °F /  13.1 °C 37.1 °F /  2.8 °C 30.01 in /  1016.1 hPa Calm     50 % 0.00 in /  0 mm
16:21 55.3 °F /  12.9 °C 37.0 °F /  2.8 °C 30.01 in /  1016.1 hPa Calm     50 % 0.00 in /  0 mm
16:26 55.3 °F /  12.9 °C 37.5 °F /  3.1 °C 30.01 in /  1016.1 hPa Calm     51 % 0.00 in /  0 mm
16:31 55.1 °F /  12.8 °C 39.2 °F /  4 °C 30.02 in /  1016.5 hPa NW 3.0 mph /  4.8 km/h 3.0 mph /  4.8 km/h 55 % 0.00 in /  0 mm
16:36 53.2 °F /  11.8 °C 40.1 °F /  4.5 °C 30.02 in /  1016.5 hPa WNW 8.1 mph /  13 km/h 8.1 mph /  13 km/h 61 % 0.00 in /  0 mm
16:41 51.1 °F /  10.6 °C 40.5 °F /  4.7 °C 30.02 in /  1016.5 hPa WNW 12.7 mph /  20.4 km/h 12.7 mph /  20.4 km/h 67 % 0.00 in /  0 mm
16:46 49.7 °F /  9.8 °C 41.0 °F /  5 °C 30.02 in /  1016.5 hPa West 13.8 mph /  22.2 km/h 13.8 mph /  22.2 km/h 72 % 0.00 in /  0 mm
16:51 48.6 °F /  9.2 °C 41.7 °F /  5.4 °C 30.03 in /  1016.8 hPa NW 6.9 mph /  11.1 km/h 6.9 mph /  11.1 km/h 77 % 0.00 in /  0 mm
16:56 47.5 °F /  8.6 °C 41.6 °F /  5.3 °C 30.03 in /  1016.8 hPa WNW 8.1 mph /  13 km/h 8.1 mph /  13 km/h 80 % 0.00 in /  0 mm
17:01 46.7 °F /  8.2 °C 41.8 °F /  5.4 °C 30.04 in /  1017.2 hPa NW 8.0 mph /  12.9 km/h 8.0 mph /  12.9 km/h 83 % 0.00 in /  0 mm
17:06 46.2 °F /  7.9 °C 41.9 °F /  5.5 °C 30.05 in /  1017.5 hPa NNW 6.0 mph /  9.7 km/h 6.0 mph /  9.7 km/h 85 % 0.00 in /  0 mm
17:11 46.1 °F /  7.8 °C 41.8 °F /  5.4 °C 30.05 in /  1017.5 hPa WNW 5.8 mph /  9.3 km/h 5.8 mph /  9.3 km/h 85 % 0.00 in /  0 mm
17:16 45.9 °F /  7.7 °C 41.3 °F /  5.2 °C 30.05 in /  1017.5 hPa North 5.8 mph /  9.3 km/h 5.8 mph /  9.3 km/h 84 % 0.02 in /  0.51 mm
17:21 45.7 °F /  7.6 °C 40.5 °F /  4.7 °C 30.05 in /  1017.5 hPa NW 3.5 mph /  5.6 km/h 3.5 mph /  5.6 km/h 82 % 0.03 in /  0.76 mm
17:26 45.7 °F /  7.6 °C 40.5 °F /  4.7 °C 30.05 in /  1017.5 hPa Calm     82 % 0.05 in /  1.27 mm
17:31 45.5 °F /  7.5 °C 40.9 °F /  4.9 °C 30.05 in /  1017.5 hPa NW 4.0 mph /  6.4 km/h 4.0 mph /  6.4 km/h 84 % 0.05 in /  1.27 mm
17:36 45.5 °F /  7.5 °C 41.9 °F /  5.5 °C 30.06 in /  1017.8 hPa NNW 4.0 mph /  6.4 km/h 4.0 mph /  6.4 km/h 87 % 0.05 in /  1.27 mm
17:41 45.5 °F /  7.5 °C 42.4 °F /  5.8 °C 30.07 in /  1018.2 hPa NNW 3.0 mph /  4.8 km/h 3.0 mph /  4.8 km/h 89 % 0.05 in /  1.27 mm
17:46 45.4 °F /  7.4 °C 42.3 °F /  5.7 °C 30.07 in /  1018.2 hPa NW 3.5 mph /  5.6 km/h 3.5 mph /  5.6 km/h 89 % 0.05 in /  1.27 mm
17:51 45.5 °F /  7.5 °C 42.7 °F /  5.9 °C 30.06 in /  1017.8 hPa NW 1.2 mph /  1.9 km/h 1.2 mph /  1.9 km/h 90 % 0.05 in /  1.27 mm
17:56 45.5 °F /  7.5 °C 42.7 °F /  5.9 °C 30.06 in /  1017.8 hPa NW 2.3 mph /  3.7 km/h 2.3 mph /  3.7 km/h 90 % 0.05 in /  1.27 mm
18:01 45.5 °F /  7.5 °C 42.4 °F /  5.8 °C 30.06 in /  1017.8 hPa WNW 2.3 mph /  3.7 km/h 2.3 mph /  3.7 km/h 89 % 0.05 in /  1.27 mm
18:06 45.4 °F /  7.4 °C 42.1 °F /  5.6 °C 30.06 in /  1017.8 hPa WNW 3.5 mph /  5.6 km/h 3.5 mph /  5.6 km/h 88 % 0.05 in /  1.27 mm
18:11 45.4 °F /  7.4 °C 42.1 °F /  5.6 °C 30.06 in /  1017.8 hPa Calm     88 % 0.05 in /  1.27 mm
18:16 45.3 °F /  7.4 °C 42.0 °F /  5.6 °C 30.06 in /  1017.8 hPa WNW 1.2 mph /  1.9 km/h 1.2 mph /  1.9 km/h 88 % 0.03 in /  0.76 mm
18:21 45.2 °F /  7.3 °C 41.6 °F /  5.3 °C 30.06 in /  1017.8 hPa ESE 2.3 mph /  3.7 km/h 2.3 mph /  3.7 km/h 87 % 0.02 in /  0.51 mm
18:26 45.1 °F /  7.3 °C 41.8 °F /  5.4 °C 30.07 in /  1018.2 hPa East 2.3 mph /  3.7 km/h 2.3 mph /  3.7 km/h 88 % 0.00 in /  0 mm
18:31 44.9 °F /  7.2 °C 41.6 °F /  5.3 °C 30.07 in /  1018.2 hPa ENE 3.5 mph /  5.6 km/h 3.5 mph /  5.6 km/h 88 % 0.00 in /  0 mm
18:36 44.8 °F /  7.1 °C 41.5 °F /  5.3 °C 30.06 in /  1017.8 hPa ENE 2.3 mph /  3.7 km/h 2.3 mph /  3.7 km/h 88 % 0.00 in /  0 mm
18:41 44.8 °F /  7.1 °C 41.5 °F /  5.3 °C 30.07 in /  1018.2 hPa NNE 1.2 mph /  1.9 km/h 1.2 mph /  1.9 km/h 88 % 0.00 in /  0 mm
18:46 44.8 °F /  7.1 °C 41.5 °F /  5.3 °C 30.06 in /  1017.8 hPa SE 1.2 mph /  1.9 km/h 1.2 mph /  1.9 km/h 88 % 0.00 in /  0 mm
18:51 44.8 °F /  7.1 °C 40.9 °F /  4.9 °C 30.06 in /  1017.8 hPa Calm   0.4 mph /  0.6 km/h 86 % 0.00 in /  0 mm
18:56 44.9 °F /  7.2 °C 41.0 °F /  5 °C 30.07 in /  1018.2 hPa ESE 1.2 mph /  1.9 km/h 1.2 mph /  1.9 km/h 86 % 0.00 in /  0 mm
19:01 44.9 °F /  7.2 °C 40.7 °F /  4.8 °C 30.07 in /  1018.2 hPa NE 1.2 mph /  1.9 km/h 1.2 mph /  1.9 km/h 85 % 0.00 in /  0 mm
19:06 44.8 °F /  7.1 °C 40.6 °F /  4.8 °C 30.08 in /  1018.5 hPa ESE 3.5 mph /  5.6 km/h 3.5 mph /  5.6 km/h 85 % 0.00 in /  0 mm
19:11 44.8 °F /  7.1 °C 40.6 °F /  4.8 °C 30.08 in /  1018.5 hPa East 2.3 mph /  3.7 km/h 2.3 mph /  3.7 km/h 85 % 0.00 in /  0 mm
19:16 44.8 °F /  7.1 °C 40.9 °F /  4.9 °C 30.08 in /  1018.5 hPa Calm     86 % 0.00 in /  0 mm
19:21 44.6 °F /  7 °C 40.7 °F /  4.8 °C 30.08 in /  1018.5 hPa Calm     86 % 0.00 in /  0 mm
19:26 44.3 °F /  6.8 °C 40.7 °F /  4.8 °C 30.08 in /  1018.5 hPa Calm     87 % 0.00 in /  0 mm
19:31 44.0 °F /  6.7 °C 40.4 °F /  4.7 °C 30.08 in /  1018.5 hPa Calm     87 % 0.00 in /  0 mm
19:36 43.7 °F /  6.5 °C 40.4 °F /  4.7 °C 30.09 in /  1018.8 hPa East 1.2 mph /  1.9 km/h   88 % 0.00 in /  0 mm
19:41 43.4 °F /  6.3 °C 40.4 °F /  4.7 °C 30.09 in /  1018.8 hPa Calm     89 % 0.00 in /  0 mm
19:46 43.2 °F /  6.2 °C 40.2 °F /  4.6 °C 30.09 in /  1018.8 hPa Calm     89 % 0.00 in /  0 mm
19:51 43.0 °F /  6.1 °C 40.3 °F /  4.6 °C 30.09 in /  1018.8 hPa Calm     90 % 0.00 in /  0 mm
19:56 42.9 °F /  6.1 °C 40.2 °F /  4.6 °C 30.09 in /  1018.8 hPa Calm     90 % 0.00 in /  0 mm
20:01 42.7 °F /  5.9 °C 40.3 °F /  4.6 °C 30.10 in /  1019.2 hPa East 1.2 mph /  1.9 km/h 1.2 mph /  1.9 km/h 91 % 0.00 in /  0 mm
20:06 42.7 °F /  5.9 °C 40.3 °F /  4.6 °C 30.10 in /  1019.2 hPa Calm     91 % 0.00 in /  0 mm
20:11 42.8 °F /  6 °C 40.4 °F /  4.7 °C 30.10 in /  1019.2 hPa Calm     91 % 0.00 in /  0 mm
20:16 42.8 °F /  6 °C 40.4 °F /  4.7 °C 30.11 in /  1019.5 hPa Calm     91 % 0.00 in /  0 mm
20:21 43.1 °F /  6.2 °C 40.7 °F /  4.8 °C 30.11 in /  1019.5 hPa Calm     91 % 0.00 in /  0 mm
20:26 43.2 °F /  6.2 °C 40.8 °F /  4.9 °C 30.11 in /  1019.5 hPa Calm     91 % 0.00 in /  0 mm
20:31 43.2 °F /  6.2 °C 40.8 °F /  4.9 °C 30.11 in /  1019.5 hPa Calm     91 % 0.00 in /  0 mm
20:36 43.2 °F /  6.2 °C 40.8 °F /  4.9 °C 30.12 in /  1019.9 hPa Calm     91 % 0.00 in /  0 mm
20:41 43.3 °F /  6.3 °C 41.1 °F /  5.1 °C 30.12 in /  1019.9 hPa East 1.2 mph /  1.9 km/h 1.2 mph /  1.9 km/h 92 % 0.00 in /  0 mm
20:46 43.4 °F /  6.3 °C 41.2 °F /  5.1 °C 30.12 in /  1019.9 hPa East 1.2 mph /  1.9 km/h   92 % 0.00 in /  0 mm
20:51 43.4 °F /  6.3 °C 41.2 °F /  5.1 °C 30.12 in /  1019.9 hPa NW 1.2 mph /  1.9 km/h 1.2 mph /  1.9 km/h 92 % 0.00 in /  0 mm
20:56 43.4 °F /  6.3 °C 41.2 °F /  5.1 °C 30.13 in /  1020.2 hPa Calm     92 % 0.00 in /  0 mm
21:01 43.4 °F /  6.3 °C 41.2 °F /  5.1 °C 30.13 in /  1020.2 hPa Calm     92 % 0.00 in /  0 mm
21:06 43.4 °F /  6.3 °C 41.2 °F /  5.1 °C 30.13 in /  1020.2 hPa Calm     92 % 0.00 in /  0 mm
21:11 43.3 °F /  6.3 °C 41.1 °F /  5.1 °C 30.13 in /  1020.2 hPa Calm     92 % 0.00 in /  0 mm
21:16 43.2 °F /  6.2 °C 41.0 °F /  5 °C 30.13 in /  1020.2 hPa Calm     92 % 0.00 in /  0 mm
21:21 43.1 °F /  6.2 °C 40.7 °F /  4.8 °C 30.13 in /  1020.2 hPa Calm     91 % 0.00 in /  0 mm
21:26 43.1 °F /  6.2 °C 40.7 °F /  4.8 °C 30.14 in /  1020.5 hPa Calm     91 % 0.00 in /  0 mm
21:31 43.2 °F /  6.2 °C 40.8 °F /  4.9 °C 30.14 in /  1020.5 hPa WNW 1.2 mph /  1.9 km/h 1.2 mph /  1.9 km/h 91 % 0.00 in /  0 mm
21:36 43.3 °F /  6.3 °C 40.8 °F /  4.9 °C 30.14 in /  1020.5 hPa Calm     91 % 0.00 in /  0 mm
21:42 43.4 °F /  6.3 °C 40.9 °F /  4.9 °C 30.14 in /  1020.5 hPa Calm     91 % 0.00 in /  0 mm
21:47 43.4 °F /  6.3 °C 40.9 °F /  4.9 °C 30.15 in /  1020.9 hPa WNW 1.2 mph /  1.9 km/h   91 % 0.00 in /  0 mm
21:52 43.4 °F /  6.3 °C 40.9 °F /  4.9 °C 30.15 in /  1020.9 hPa WNW 1.2 mph /  1.9 km/h 1.2 mph /  1.9 km/h 91 % 0.00 in /  0 mm
21:57 43.4 °F /  6.3 °C 41.2 °F /  5.1 °C 30.15 in /  1020.9 hPa Calm   0.5 mph /  0.8 km/h 92 % 0.00 in /  0 mm
22:02 43.5 °F /  6.4 °C 41.3 °F /  5.2 °C 30.15 in /  1020.9 hPa Calm     92 % 0.00 in /  0 mm
22:07 43.6 °F /  6.4 °C 41.4 °F /  5.2 °C 30.15 in /  1020.9 hPa Calm     92 % 0.00 in /  0 mm
22:12 43.7 °F /  6.5 °C 41.5 °F /  5.3 °C 30.16 in /  1021.2 hPa Calm     92 % 0.00 in /  0 mm
22:17 43.8 °F /  6.6 °C 41.6 °F /  5.3 °C 30.16 in /  1021.2 hPa Calm     92 % 0.01 in /  0.25 mm
22:22 43.8 °F /  6.6 °C 41.6 °F /  5.3 °C 30.16 in /  1021.2 hPa Calm     92 % 0.01 in /  0.25 mm
22:27 43.9 °F /  6.6 °C 41.7 °F /  5.4 °C 30.16 in /  1021.2 hPa SE 1.2 mph /  1.9 km/h 1.2 mph /  1.9 km/h 92 % 0.01 in /  0.25 mm
22:32 44.0 °F /  6.7 °C 41.5 °F /  5.3 °C 30.16 in /  1021.2 hPa NNW 1.2 mph /  1.9 km/h   91 % 0.01 in /  0.25 mm
22:37 44.1 °F /  6.7 °C 41.6 °F /  5.3 °C 30.16 in /  1021.2 hPa NW 1.2 mph /  1.9 km/h 1.2 mph /  1.9 km/h 91 % 0.01 in /  0.25 mm
22:42 44.1 °F /  6.7 °C 41.6 °F /  5.3 °C 30.16 in /  1021.2 hPa Calm     91 % 0.01 in /  0.25 mm
22:47 44.0 °F /  6.7 °C 41.5 °F /  5.3 °C 30.16 in /  1021.2 hPa Calm     91 % 0.01 in /  0.25 mm
22:52 43.8 °F /  6.6 °C 41.1 °F /  5.1 °C 30.16 in /  1021.2 hPa East 2.3 mph /  3.7 km/h 2.3 mph /  3.7 km/h 90 % 0.02 in /  0.51 mm
22:57 43.7 °F /  6.5 °C 41.0 °F /  5 °C 30.16 in /  1021.2 hPa Calm     90 % 0.02 in /  0.51 mm
23:02 43.6 °F /  6.4 °C 40.9 °F /  4.9 °C 30.16 in /  1021.2 hPa Calm     90 % 0.02 in /  0.51 mm
23:07 43.5 °F /  6.4 °C 40.8 °F /  4.9 °C 30.16 in /  1021.2 hPa East 1.2 mph /  1.9 km/h   90 % 0.02 in /  0.51 mm
23:12 43.4 °F /  6.3 °C 40.7 °F /  4.8 °C 30.16 in /  1021.2 hPa Calm     90 % 0.02 in /  0.51 mm
23:17 43.4 °F /  6.3 °C 40.7 °F /  4.8 °C 30.16 in /  1021.2 hPa East 1.0 mph /  1.6 km/h   90 % 0.01 in /  0.25 mm
23:22 43.5 °F /  6.4 °C 41.0 °F /  5 °C 30.16 in /  1021.2 hPa Calm     91 % 0.01 in /  0.25 mm
23:27 43.5 °F /  6.4 °C 40.8 °F /  4.9 °C 30.17 in /  1021.6 hPa NW 1.2 mph /  1.9 km/h 1.2 mph /  1.9 km/h 90 % 0.01 in /  0.25 mm
23:32 43.5 °F /  6.4 °C 40.8 °F /  4.9 °C 30.17 in /  1021.6 hPa NW 1.2 mph /  1.9 km/h 1.2 mph /  1.9 km/h 90 % 0.01 in /  0.25 mm
23:37 43.5 °F /  6.4 °C 40.8 °F /  4.9 °C 30.17 in /  1021.6 hPa Calm     90 % 0.01 in /  0.25 mm
23:42 43.4 °F /  6.3 °C 40.9 °F /  4.9 °C 30.17 in /  1021.6 hPa NW 2.3 mph /  3.7 km/h 2.3 mph /  3.7 km/h 91 % 0.01 in /  0.25 mm
23:47 43.4 °F /  6.3 °C 40.9 °F /  4.9 °C 30.17 in /  1021.6 hPa WNW 1.2 mph /  1.9 km/h 1.2 mph /  1.9 km/h 91 % 0.01 in /  0.25 mm
23:52 43.3 °F /  6.3 °C 40.8 °F /  4.9 °C 30.17 in /  1021.6 hPa WNW 1.2 mph /  1.9 km/h 1.2 mph /  1.9 km/h 91 % 0.00 in /  0 mm
23:57 43.4 °F /  6.3 °C 41.2 °F /  5.1 °C 30.17 in /  1021.6 hPa NNW 2.3 mph /  3.7 km/h 2.3 mph /  3.7 km/h 92 % 0.00 in /  0 mm
Park Place, Exeter, Tulare County, California, USA
Compliments of Weather Underground - 2.75 mb